createdAt,value
2023-05-05T10:26:05.376Z,500.00
2023-05-05T10:27:04.952Z,500.00
2023-05-05T10:28:04.965Z,500.00
2023-05-05T10:29:05.027Z,500.00
2023-05-05T10:30:04.979Z,500.00
2023-05-05T10:31:10.001Z,400.00
2023-05-05T10:32:21.495Z,400.00
2023-05-05T10:33:18.497Z,400.00
2023-05-05T10:34:06.188Z,400.00
2023-05-05T10:35:04.899Z,400.00
2023-05-05T10:36:04.986Z,400.00
2023-05-05T10:37:05.015Z,400.00
2023-05-05T10:38:04.945Z,400.00
2023-05-05T10:39:04.948Z,400.00
2023-05-05T10:40:04.872Z,400.00
2023-05-05T10:41:04.878Z,400.00
2023-05-05T10:42:04.922Z,400.00
2023-05-05T10:43:04.918Z,400.00
2023-05-05T10:44:04.893Z,400.00
2023-05-05T10:45:04.916Z,400.00
2023-05-05T10:46:04.860Z,400.00
2023-05-05T10:47:04.844Z,400.00
2023-05-05T10:48:04.902Z,400.00
2023-05-05T10:49:04.825Z,400.00
2023-05-05T10:50:04.851Z,400.00
2023-05-05T10:51:04.807Z,400.00
2023-05-05T10:52:04.822Z,400.00
2023-05-05T10:53:04.791Z,400.00
2023-05-05T10:54:04.825Z,400.00
2023-05-05T10:55:04.792Z,400.00
2023-05-05T10:56:04.769Z,400.00
2023-05-05T10:57:04.858Z,400.00
2023-05-05T10:58:04.788Z,400.00
2023-05-05T10:59:04.774Z,400.00
2023-05-05T11:00:04.759Z,400.00
2023-05-05T11:01:04.741Z,400.00
2023-05-05T11:02:04.772Z,400.00
2023-05-05T11:03:04.786Z,400.00
2023-05-05T11:04:04.751Z,400.00
2023-05-05T11:05:04.766Z,400.00
2023-05-05T11:06:04.699Z,400.00
2023-05-05T11:07:04.688Z,400.00
2023-05-05T11:08:04.713Z,400.00
2023-05-05T11:09:04.684Z,400.00
2023-05-05T11:10:04.659Z,400.00
2023-05-05T11:11:04.656Z,400.00
2023-05-05T11:12:04.648Z,400.00
2023-05-05T11:13:04.702Z,400.00
2023-05-05T11:14:04.774Z,400.00
2023-05-05T11:15:04.698Z,401.00
2023-05-05T11:16:04.714Z,485.00
2023-05-05T11:17:04.650Z,528.00
2023-05-05T11:18:07.037Z,504.00
2023-05-05T11:19:04.642Z,501.00
2023-05-05T11:20:04.642Z,520.00
2023-05-05T11:21:04.653Z,527.00
2023-05-05T11:22:04.640Z,539.00
2023-05-05T11:23:05.029Z,480.00
2023-05-05T11:24:04.632Z,514.00
2023-05-05T11:25:04.602Z,552.00
2023-05-05T11:26:04.623Z,580.00
2023-05-05T11:27:04.584Z,591.00
2023-05-05T11:28:04.591Z,617.00
2023-05-05T11:29:04.608Z,634.00
2023-05-05T11:30:04.702Z,637.00
2023-05-05T11:31:04.650Z,634.00
2023-05-05T11:32:04.570Z,638.00
2023-05-05T11:33:04.614Z,638.00
2023-05-05T11:34:04.570Z,641.00
2023-05-05T11:35:04.539Z,617.00
2023-05-05T11:36:06.377Z,630.00
2023-05-05T11:37:04.545Z,635.00
2023-05-05T11:38:04.532Z,629.00
2023-05-05T11:39:04.604Z,632.00
2023-05-05T11:40:04.679Z,635.00
2023-05-05T11:41:04.729Z,649.00
2023-05-05T11:42:09.414Z,656.00
2023-05-05T11:43:05.756Z,657.00
2023-05-05T11:44:04.784Z,658.00
2023-05-05T11:45:04.767Z,660.00
2023-05-05T11:46:04.830Z,667.00
2023-05-05T11:47:04.724Z,671.00
2023-05-05T11:48:04.716Z,679.00
2023-05-05T11:49:04.725Z,693.00
2023-05-05T11:50:04.717Z,701.00
2023-05-05T11:51:07.314Z,701.00
2023-05-05T11:52:04.952Z,701.00
2023-05-05T11:53:04.976Z,699.00
2023-05-05T11:54:05.080Z,697.00
2023-05-05T11:55:05.118Z,710.00
2023-05-05T11:56:05.200Z,718.00
2023-05-05T11:57:05.252Z,720.00
2023-05-05T11:58:05.295Z,731.00
2023-05-05T11:59:05.318Z,717.00
2023-05-05T12:00:05.417Z,712.00
2023-05-05T12:01:05.457Z,709.00
2023-05-05T12:02:05.573Z,718.00
2023-05-05T12:03:05.775Z,724.00
2023-05-05T12:04:05.727Z,722.00
2023-05-05T12:05:05.683Z,720.00
2023-05-05T12:06:05.720Z,725.00
2023-05-05T12:07:05.789Z,718.00
2023-05-05T12:08:05.814Z,720.00
2023-05-05T12:09:05.905Z,712.00
2023-05-05T12:10:06.021Z,710.00
2023-05-05T12:11:06.007Z,690.00
2023-05-05T12:12:06.031Z,665.00
2023-05-05T12:13:06.137Z,658.00
2023-05-05T12:14:06.129Z,649.00
2023-05-05T12:15:06.202Z,628.00
2023-05-05T12:16:06.238Z,613.00
2023-05-05T12:17:06.314Z,597.00
2023-05-05T12:18:06.447Z,579.00
2023-05-05T12:19:06.411Z,578.00
2023-05-05T12:20:06.855Z,560.00
2023-05-05T12:21:06.529Z,534.00
2023-05-05T12:22:06.577Z,521.00
2023-05-05T12:23:06.695Z,500.00
2023-05-05T12:24:06.760Z,499.00
2023-05-05T12:25:06.778Z,505.00
2023-05-05T12:26:06.854Z,503.00
2023-05-05T12:27:06.899Z,498.00
2023-05-05T12:28:06.983Z,500.00
2023-05-05T12:29:07.031Z,500.00
2023-05-05T12:30:07.338Z,501.00
2023-05-05T12:31:07.247Z,500.00
2023-05-05T12:32:07.246Z,498.00
2023-05-05T12:33:07.283Z,500.00
2023-05-05T12:34:07.344Z,511.00
2023-05-05T12:35:07.341Z,502.00
2023-05-05T12:36:07.380Z,501.00
2023-05-05T12:37:07.435Z,505.00
2023-05-05T12:38:07.541Z,519.00
2023-05-05T12:39:07.577Z,507.00
2023-05-05T12:40:07.802Z,515.00
2023-05-05T12:41:07.662Z,499.00
2023-05-05T12:43:07.730Z,502.00
2023-05-05T12:44:07.680Z,503.00
2023-05-05T12:45:07.707Z,504.00
2023-05-05T12:46:07.786Z,503.00
2023-05-05T12:47:07.704Z,520.00
2023-05-05T12:48:07.685Z,610.00
2023-05-05T12:49:07.691Z,623.00
2023-05-05T12:50:07.991Z,605.00
2023-05-05T12:51:07.659Z,556.00
2023-05-05T12:52:07.644Z,548.00
2023-05-05T12:53:07.638Z,597.00
2023-05-05T12:54:07.650Z,577.00
2023-05-05T12:55:07.852Z,545.00
2023-05-05T12:56:07.611Z,536.00
2023-05-05T12:57:07.646Z,549.00
2023-05-05T12:58:07.632Z,542.00
2023-05-05T12:59:07.758Z,550.00
2023-05-05T13:00:07.823Z,526.00
2023-05-05T13:01:07.677Z,519.00
2023-05-05T13:02:07.616Z,528.00
2023-05-05T13:03:07.829Z,523.00
2023-05-05T13:04:07.554Z,523.00
2023-05-05T13:05:07.728Z,527.00
2023-05-05T13:06:07.604Z,512.00
2023-05-05T13:07:07.561Z,512.00
2023-05-05T13:08:07.530Z,508.00
2023-05-05T13:09:07.593Z,521.00
2023-05-05T13:10:07.681Z,529.00
2023-05-05T13:11:07.504Z,501.00
2023-05-05T13:12:07.536Z,502.00
2023-05-05T13:13:07.485Z,508.00
2023-05-05T13:14:07.460Z,504.00
2023-05-05T13:15:07.896Z,509.00
2023-05-05T13:16:07.503Z,500.00
2023-05-05T13:17:07.491Z,513.00
2023-05-05T13:18:07.477Z,512.00
2023-05-05T13:19:07.427Z,508.00
2023-05-05T13:20:07.567Z,501.00
2023-05-05T13:21:07.526Z,512.00
2023-05-05T13:22:07.648Z,510.00
2023-05-05T13:23:07.565Z,516.00
2023-05-05T13:24:18.903Z,497.00
2023-05-05T13:25:08.776Z,498.00
2023-05-05T13:26:07.572Z,500.00
2023-05-05T13:27:07.556Z,507.00
2023-05-05T13:28:07.552Z,508.00
2023-05-05T13:29:07.592Z,512.00
2023-05-05T13:30:07.560Z,511.00
2023-05-05T13:31:07.596Z,510.00
2023-05-05T13:32:07.530Z,526.00
2023-05-05T13:33:07.590Z,506.00
2023-05-05T13:34:07.508Z,500.00
2023-05-05T13:35:07.720Z,521.00
2023-05-05T13:36:07.529Z,516.00
2023-05-05T13:37:07.526Z,540.00
2023-05-05T13:38:07.604Z,519.00
2023-05-05T13:39:07.503Z,523.00
2023-05-05T13:40:07.576Z,523.00
2023-05-05T13:41:07.566Z,507.00
2023-05-05T13:42:07.615Z,536.00
2023-05-05T13:43:07.626Z,531.00
2023-05-05T13:44:07.652Z,528.00
2023-05-05T13:45:07.906Z,507.00
2023-05-05T13:46:19.250Z,520.00
2023-05-05T13:47:08.704Z,520.00
2023-05-05T13:48:07.708Z,522.00
2023-05-05T13:49:07.677Z,527.00
2023-05-05T13:50:07.640Z,519.00
2023-05-05T13:51:07.616Z,523.00
2023-05-05T13:52:07.641Z,524.00
2023-05-05T13:53:07.670Z,534.00
2023-05-05T13:54:07.684Z,520.00
2023-05-05T13:55:07.787Z,509.00
2023-05-05T13:56:07.627Z,503.00
2023-05-05T13:57:07.583Z,525.00
2023-05-05T13:58:07.598Z,528.00
2023-05-05T13:59:07.666Z,519.00
2023-05-05T14:00:07.583Z,528.00
2023-05-05T14:01:07.705Z,509.00
2023-05-05T14:02:07.572Z,514.00
2023-05-05T14:03:07.550Z,524.00
2023-05-05T14:04:07.713Z,500.00
2023-05-05T14:05:07.787Z,509.00
2023-05-05T14:06:07.549Z,502.00
2023-05-05T14:07:07.605Z,511.00
2023-05-05T14:08:07.564Z,539.00
2023-05-05T14:09:07.598Z,541.00
2023-05-05T14:10:07.764Z,572.00
2023-05-05T14:11:07.631Z,592.00
2023-05-05T14:12:07.636Z,581.00
2023-05-05T14:13:07.732Z,573.00
2023-05-05T14:14:07.668Z,588.00
2023-05-05T14:15:07.925Z,567.00
2023-05-05T14:16:07.750Z,604.00
2023-05-05T14:17:07.658Z,600.00
2023-05-05T14:18:07.778Z,622.00
2023-05-05T14:19:07.695Z,649.00
2023-05-05T14:20:07.743Z,701.00
2023-05-05T14:21:07.755Z,698.00
2023-05-05T14:22:07.736Z,760.00
2023-05-05T14:23:07.807Z,756.00
2023-05-05T14:24:07.794Z,739.00
2023-05-05T14:25:07.911Z,803.00
2023-05-05T14:26:07.853Z,854.00
2023-05-05T14:27:07.793Z,868.00
2023-05-05T14:28:07.848Z,895.00
2023-05-05T14:29:07.813Z,937.00
2023-05-05T14:30:07.912Z,952.00
2023-05-05T14:31:07.832Z,946.00
2023-05-05T14:32:07.879Z,990.00
2023-05-05T14:33:07.917Z,990.00
2023-05-05T14:34:07.862Z,1050.00
2023-05-05T14:35:08.045Z,1046.00
2023-05-05T14:36:07.883Z,1054.00
2023-05-05T14:37:07.890Z,1091.00
2023-05-05T14:38:07.915Z,1093.00
2023-05-05T14:39:07.877Z,1081.00
2023-05-05T14:40:07.924Z,1081.00
2023-05-05T14:41:07.877Z,1095.00
2023-05-05T14:42:07.952Z,1118.00
2023-05-05T14:43:07.973Z,1143.00
2023-05-05T14:44:07.918Z,1148.00
2023-05-05T14:45:08.144Z,1165.00
2023-05-05T14:46:07.949Z,1163.00
2023-05-05T14:47:07.920Z,1161.00
2023-05-05T14:48:07.940Z,1158.00
2023-05-05T14:49:07.969Z,1182.00
2023-05-05T14:50:07.968Z,1182.00
2023-05-05T14:51:07.991Z,1172.00
2023-05-05T14:52:07.947Z,1206.00
2023-05-05T14:53:07.968Z,1221.00
2023-05-05T14:54:20.470Z,1209.00
2023-05-05T14:55:09.257Z,1210.00
2023-05-05T14:56:07.979Z,1214.00
2023-05-05T14:57:07.997Z,1218.00
2023-05-05T14:58:08.013Z,1231.00
2023-05-05T14:59:07.977Z,1245.00
2023-05-05T15:00:07.943Z,1270.00
2023-05-05T15:01:08.010Z,1265.00
2023-05-05T15:02:07.936Z,1256.00
2023-05-05T15:03:08.021Z,1253.00
2023-05-05T15:04:07.920Z,1280.00
2023-05-05T15:05:08.226Z,1290.00
2023-05-05T15:06:07.924Z,1270.00
2023-05-05T15:07:07.916Z,1282.00
2023-05-05T15:08:07.918Z,1295.00
2023-05-05T15:09:07.895Z,1291.00
2023-05-05T15:10:07.896Z,1296.00
2023-05-05T15:11:07.921Z,1289.00
2023-05-05T15:12:07.863Z,1299.00
2023-05-05T15:13:07.972Z,1289.00
2023-05-05T15:14:07.849Z,1297.00
2023-05-05T15:15:08.070Z,1308.00
2023-05-05T15:16:07.970Z,1308.00
2023-05-05T15:17:07.894Z,1323.00
2023-05-05T15:18:07.916Z,1312.00
2023-05-05T15:19:07.909Z,1307.00
2023-05-05T15:20:07.950Z,1310.00
2023-05-05T15:21:08.035Z,1308.00
2023-05-05T15:22:08.013Z,1301.00
2023-05-05T15:23:08.064Z,1305.00
2023-05-05T15:24:08.043Z,1311.00
2023-05-05T15:25:08.277Z,1308.00
2023-05-05T15:26:08.083Z,1318.00
2023-05-05T15:27:08.163Z,1313.00
2023-05-05T15:28:08.160Z,1316.00
2023-05-05T15:29:08.186Z,1333.00
2023-05-05T15:30:08.264Z,1315.00
2023-05-05T15:31:08.231Z,1315.00
2023-05-05T15:32:08.313Z,1313.00
2023-05-05T15:33:08.255Z,1319.00
2023-05-05T15:34:08.309Z,1313.00
2023-05-05T15:35:08.512Z,1314.00
2023-05-05T15:36:08.358Z,1317.00
2023-05-05T15:37:08.440Z,1318.00
2023-05-05T15:38:08.452Z,1319.00
2023-05-05T15:39:08.459Z,1322.00
2023-05-05T15:40:08.519Z,1315.00
2023-05-05T15:41:08.559Z,1322.00
2023-05-05T15:42:08.578Z,1309.00
2023-05-05T15:43:08.707Z,1309.00
2023-05-05T15:44:08.622Z,1314.00
2023-05-05T15:45:08.923Z,1325.00
2023-05-05T15:46:08.762Z,1303.00
2023-05-05T15:47:08.804Z,1314.00
2023-05-05T15:48:08.810Z,1308.00
2023-05-05T15:49:08.814Z,1311.00
2023-05-05T15:50:08.859Z,1314.00
2023-05-05T15:51:08.907Z,1307.00
2023-05-05T15:52:08.925Z,1301.00
2023-05-05T15:53:08.951Z,1309.00
2023-05-05T15:54:09.004Z,1302.00
2023-05-05T15:55:09.169Z,1292.00
2023-05-05T15:56:09.062Z,1299.00
2023-05-05T15:57:09.082Z,1304.00
2023-05-05T15:58:09.158Z,1317.00
2023-05-05T15:59:09.164Z,1295.00
2023-05-05T16:00:09.226Z,1302.00
2023-05-05T16:01:09.314Z,1301.00
2023-05-05T16:02:09.404Z,1303.00
2023-05-05T16:03:09.551Z,1292.00
2023-05-05T16:04:09.421Z,1289.00
2023-05-05T16:05:09.736Z,1299.00
2023-05-05T16:06:09.498Z,1288.00
2023-05-05T16:07:09.548Z,1293.00
2023-05-05T16:08:09.602Z,1298.00
2023-05-05T16:09:09.661Z,1287.00
2023-05-05T16:10:09.654Z,1295.00
2023-05-05T16:11:09.699Z,1285.00
2023-05-05T16:12:09.795Z,1281.00
2023-05-05T16:13:09.857Z,1296.00
2023-05-05T16:14:09.850Z,1294.00
2023-05-05T16:15:10.223Z,1274.00
2023-05-05T16:16:09.988Z,1276.00
2023-05-05T16:17:09.937Z,1288.00
2023-05-05T16:18:10.073Z,1263.00
2023-05-05T16:19:10.083Z,1278.00
2023-05-05T16:20:10.087Z,1269.00
2023-05-05T16:21:10.128Z,1282.00
2023-05-05T16:22:10.192Z,1269.00
2023-05-05T16:23:10.200Z,1271.00
2023-05-05T16:24:10.267Z,1265.00
2023-05-05T16:25:10.516Z,1267.00
2023-05-05T16:26:10.366Z,1258.00
2023-05-05T16:27:10.371Z,1261.00
2023-05-05T16:28:10.403Z,1271.00
2023-05-05T16:29:10.527Z,1262.00
2023-05-05T16:30:10.499Z,1258.00
2023-05-05T16:31:10.741Z,1258.00
2023-05-05T16:32:10.615Z,1262.00
2023-05-05T16:33:10.769Z,1256.00
2023-05-05T16:34:10.769Z,1265.00
2023-05-05T16:35:10.828Z,1262.00
2023-05-05T16:36:10.803Z,1259.00
2023-05-05T16:37:10.859Z,1256.00
2023-05-05T16:38:10.876Z,1254.00
2023-05-05T16:39:10.929Z,1247.00
2023-05-05T16:40:10.991Z,1239.00
2023-05-05T16:41:11.028Z,1245.00
2023-05-05T16:42:11.089Z,1251.00
2023-05-05T16:43:11.176Z,1248.00
2023-05-05T16:44:11.169Z,1234.00
2023-05-05T16:45:11.470Z,1241.00
2023-05-05T16:46:11.347Z,1244.00
2023-05-05T16:47:11.336Z,1242.00
2023-05-05T16:48:11.413Z,1245.00
2023-05-05T16:49:11.457Z,1244.00
2023-05-05T16:50:11.545Z,1243.00
2023-05-05T16:51:11.530Z,1242.00
2023-05-05T16:52:11.578Z,1232.00
2023-05-05T16:53:11.623Z,1240.00
2023-05-05T16:54:11.688Z,1231.00
2023-05-05T16:55:11.881Z,1245.00
2023-05-05T16:56:11.798Z,1229.00
2023-05-05T16:57:11.836Z,1241.00
2023-05-05T16:58:11.848Z,1222.00
2023-05-05T16:59:11.913Z,1235.00
2023-05-05T17:00:11.991Z,1224.00
